createdAt,value
2019-02-14T00:00:59.710Z,1010.92
2019-02-14T00:01:59.883Z,1010.96
2019-02-14T00:03:00.054Z,1010.91
2019-02-14T00:04:00.232Z,1010.96
2019-02-14T00:05:00.396Z,1010.94
2019-02-14T00:06:00.564Z,1010.94
2019-02-14T00:07:00.738Z,1011.02
2019-02-14T00:08:00.910Z,1010.97
2019-02-14T00:09:01.078Z,1010.95
2019-02-14T00:10:01.251Z,1010.96
2019-02-14T00:11:01.423Z,1010.98
2019-02-14T00:12:01.598Z,1010.97
2019-02-14T00:13:01.760Z,1010.93
2019-02-14T00:14:01.938Z,1010.93
2019-02-14T00:15:02.107Z,1010.96
2019-02-14T00:16:02.284Z,1010.88
2019-02-14T00:17:02.436Z,1010.91
2019-02-14T00:18:02.617Z,1010.91
2019-02-14T00:19:02.783Z,1010.90
2019-02-14T00:20:02.964Z,1010.90
2019-02-14T00:21:03.123Z,1010.86
2019-02-14T00:22:03.298Z,1010.95
2019-02-14T00:23:03.471Z,1010.92
2019-02-14T00:24:03.652Z,1010.93
2019-02-14T00:25:03.809Z,1010.94
2019-02-14T00:26:03.981Z,1010.94
2019-02-14T00:27:04.141Z,1010.93
2019-02-14T00:28:04.314Z,1010.95
2019-02-14T00:29:04.484Z,1010.99
2019-02-14T00:30:04.657Z,1010.98
2019-02-14T00:31:04.852Z,1010.95
2019-02-14T00:32:04.999Z,1010.94
2019-02-14T00:33:05.180Z,1010.91
2019-02-14T00:34:05.341Z,1010.94
2019-02-14T00:35:05.510Z,1010.89
2019-02-14T00:36:05.680Z,1010.91
2019-02-14T00:37:05.852Z,1010.86
2019-02-14T00:38:06.025Z,1010.87
2019-02-14T00:39:06.194Z,1010.85
2019-02-14T00:40:06.355Z,1010.86
2019-02-14T00:41:06.528Z,1010.78
2019-02-14T00:42:06.699Z,1010.87
2019-02-14T00:43:06.864Z,1010.81
2019-02-14T00:44:07.036Z,1010.81
2019-02-14T00:45:07.206Z,1010.83
2019-02-14T00:46:07.385Z,1010.87
2019-02-14T00:47:07.548Z,1010.89
2019-02-14T00:48:07.715Z,1010.87
2019-02-14T00:49:07.892Z,1010.90
2019-02-14T00:50:08.060Z,1010.88
2019-02-14T00:51:08.225Z,1010.86
2019-02-14T00:52:08.409Z,1010.82
2019-02-14T00:53:08.563Z,1010.86
2019-02-14T00:54:08.727Z,1010.86
2019-02-14T00:55:08.905Z,1010.87
2019-02-14T00:56:09.067Z,1010.87
2019-02-14T00:57:09.239Z,1010.90
2019-02-14T00:58:09.410Z,1010.87
2019-02-14T00:59:09.576Z,1010.93
2019-02-14T01:00:09.748Z,1010.97
2019-02-14T01:01:09.920Z,1010.94
2019-02-14T01:02:10.090Z,1010.91
2019-02-14T01:03:10.259Z,1010.83
2019-02-14T01:04:10.438Z,1010.83
2019-02-14T01:05:10.607Z,1010.80
2019-02-14T01:06:10.766Z,1010.75
2019-02-14T01:07:10.944Z,1010.76
2019-02-14T01:08:11.106Z,1010.74
2019-02-14T01:09:11.289Z,1010.73
2019-02-14T01:10:11.437Z,1010.75
2019-02-14T01:11:11.610Z,1010.75
2019-02-14T01:12:11.771Z,1010.81
2019-02-14T01:13:11.942Z,1010.86
2019-02-14T01:14:12.115Z,1010.88
2019-02-14T01:15:12.282Z,1010.86
2019-02-14T01:16:12.452Z,1010.89
2019-02-14T01:17:12.619Z,1010.82
2019-02-14T01:18:12.801Z,1010.85
2019-02-14T01:19:12.967Z,1010.87
2019-02-14T01:20:13.138Z,1010.87
2019-02-14T01:21:13.308Z,1010.86
2019-02-14T01:22:13.475Z,1010.86
2019-02-14T01:23:13.658Z,1010.90
2019-02-14T01:24:13.820Z,1010.97
2019-02-14T01:25:13.991Z,1010.94
2019-02-14T01:26:14.160Z,1010.98
2019-02-14T01:27:14.329Z,1010.92
2019-02-14T01:28:14.500Z,1010.97
2019-02-14T01:29:14.673Z,1011.05
2019-02-14T01:30:14.838Z,1011.05
2019-02-14T01:31:15.012Z,1011.08
2019-02-14T01:32:15.185Z,1011.08
2019-02-14T01:33:15.354Z,1011.07
2019-02-14T01:34:15.523Z,1011.08
2019-02-14T01:35:15.704Z,1011.06
2019-02-14T01:36:15.864Z,1011.03
2019-02-14T01:37:16.047Z,1010.98
2019-02-14T01:38:16.200Z,1011.03
2019-02-14T01:39:16.369Z,1011.05
2019-02-14T01:40:16.552Z,1011.02
2019-02-14T01:41:16.705Z,1011.08
2019-02-14T01:42:16.885Z,1011.07
2019-02-14T01:43:17.046Z,1011.02
2019-02-14T01:44:17.217Z,1011.03
2019-02-14T01:45:17.385Z,1011.04
2019-02-14T01:46:17.555Z,1011.05
2019-02-14T01:47:17.728Z,1011.09
2019-02-14T01:48:17.900Z,1011.08
2019-02-14T01:49:18.069Z,1011.10
2019-02-14T01:50:18.248Z,1011.05
2019-02-14T01:51:18.408Z,1011.07
2019-02-14T01:52:18.579Z,1011.05
2019-02-14T01:53:18.751Z,1011.11
2019-02-14T01:54:18.920Z,1011.11
2019-02-14T01:55:19.093Z,1011.04
2019-02-14T01:56:19.261Z,1011.04
2019-02-14T01:57:19.432Z,1011.07
2019-02-14T01:58:19.603Z,1011.01
2019-02-14T02:00:19.947Z,1011.04
2019-02-14T02:01:20.112Z,1010.99
2019-02-14T02:02:20.285Z,1010.98
2019-02-14T02:03:20.456Z,1011.02
2019-02-14T02:04:20.622Z,1011.07
2019-02-14T02:05:20.799Z,1011.09
2019-02-14T02:06:20.964Z,1011.09
2019-02-14T02:07:21.141Z,1011.04
2019-02-14T02:08:21.306Z,1011.04
2019-02-14T02:09:21.476Z,1011.03
2019-02-14T02:10:21.651Z,1010.97
2019-02-14T02:11:21.815Z,1010.96
2019-02-14T02:12:21.989Z,1010.93
2019-02-14T02:13:22.159Z,1010.97
2019-02-14T02:14:22.332Z,1010.98
2019-02-14T02:15:22.495Z,1011.01
2019-02-14T02:16:22.666Z,1011.02
2019-02-14T02:17:22.834Z,1011.00
2019-02-14T02:18:23.006Z,1011.03
2019-02-14T02:19:23.177Z,1010.97
2019-02-14T02:20:23.350Z,1010.98
2019-02-14T02:21:23.517Z,1011.03
2019-02-14T02:22:23.685Z,1011.04
2019-02-14T02:23:23.851Z,1011.03
2019-02-14T02:24:24.031Z,1011.03
2019-02-14T02:25:24.195Z,1011.03
2019-02-14T02:26:24.370Z,1011.02
2019-02-14T02:27:24.532Z,1011.00
2019-02-14T02:28:24.705Z,1011.02
2019-02-14T02:29:24.871Z,1011.04
2019-02-14T02:30:25.046Z,1011.00
2019-02-14T02:31:25.205Z,1011.01
2019-02-14T02:32:25.378Z,1011.02
2019-02-14T02:33:25.572Z,1011.02
2019-02-14T02:34:25.726Z,1011.03
2019-02-14T02:35:25.915Z,1011.02
2019-02-14T02:36:26.057Z,1011.02
2019-02-14T02:37:26.223Z,1011.05
2019-02-14T02:38:26.394Z,1010.99
2019-02-14T02:39:26.583Z,1011.03
2019-02-14T02:40:26.752Z,1011.06
2019-02-14T02:41:26.928Z,1011.04
2019-02-14T02:42:27.093Z,1011.05
2019-02-14T02:43:27.265Z,1011.11
2019-02-14T02:44:27.440Z,1011.09
2019-02-14T02:45:27.615Z,1011.07
2019-02-14T02:46:27.774Z,1011.06
2019-02-14T02:47:27.950Z,1011.08
2019-02-14T02:48:28.125Z,1011.09
2019-02-14T02:49:29.471Z,1011.11
2019-02-14T02:50:28.464Z,1011.09
2019-02-14T02:51:28.629Z,1011.11
2019-02-14T02:52:28.812Z,1011.12
2019-02-14T02:53:28.982Z,1011.18
2019-02-14T02:54:29.129Z,1011.24
2019-02-14T02:55:29.303Z,1011.24
2019-02-14T02:56:29.468Z,1011.24
2019-02-14T02:57:29.638Z,1011.23
2019-02-14T02:58:29.811Z,1011.20
2019-02-14T02:59:29.991Z,1011.20
2019-02-14T03:00:30.143Z,1011.16
2019-02-14T03:01:30.313Z,1011.11
2019-02-14T03:02:30.487Z,1011.12
2019-02-14T03:03:30.654Z,1011.13
2019-02-14T03:04:30.830Z,1011.06
2019-02-14T03:05:31.004Z,1011.12
2019-02-14T03:06:31.171Z,1011.07
2019-02-14T03:07:31.356Z,1011.09
2019-02-14T03:08:31.516Z,1011.12
2019-02-14T03:09:31.688Z,1011.06
2019-02-14T03:10:31.847Z,1011.04
2019-02-14T03:11:32.036Z,1011.05
2019-02-14T03:12:32.195Z,1011.06
2019-02-14T03:13:32.366Z,1011.00
2019-02-14T03:14:32.541Z,1011.05
2019-02-14T03:15:32.707Z,1011.04
2019-02-14T03:16:32.882Z,1011.10
2019-02-14T03:17:33.044Z,1011.06
2019-02-14T03:18:33.219Z,1011.06
2019-02-14T03:19:33.388Z,1011.07
2019-02-14T03:20:33.560Z,1011.11
2019-02-14T03:21:33.728Z,1011.15
2019-02-14T03:22:33.906Z,1011.13
2019-02-14T03:23:34.065Z,1011.14
2019-02-14T03:24:34.234Z,1011.20
2019-02-14T03:25:35.701Z,1011.17
2019-02-14T03:26:34.575Z,1011.24
2019-02-14T03:27:34.742Z,1011.20
2019-02-14T03:28:34.913Z,1011.23
2019-02-14T03:29:35.089Z,1011.22
2019-02-14T03:30:35.265Z,1011.22
2019-02-14T03:31:35.424Z,1011.28
2019-02-14T03:32:35.592Z,1011.28
2019-02-14T03:33:35.761Z,1011.31
2019-02-14T03:34:35.927Z,1011.30
2019-02-14T03:35:36.095Z,1011.29
2019-02-14T03:36:36.273Z,1011.29
2019-02-14T03:37:36.448Z,1011.23
2019-02-14T03:38:36.611Z,1011.22
2019-02-14T03:39:36.773Z,1011.24
2019-02-14T03:40:36.940Z,1011.29
2019-02-14T03:41:37.111Z,1011.29
2019-02-14T03:42:37.294Z,1011.33
2019-02-14T03:43:37.449Z,1011.36
2019-02-14T03:44:37.618Z,1011.34
2019-02-14T03:45:37.806Z,1011.32
2019-02-14T03:46:37.955Z,1011.33
2019-02-14T03:47:38.128Z,1011.30
2019-02-14T03:48:38.294Z,1011.31
2019-02-14T03:49:38.457Z,1011.30
2019-02-14T03:50:38.635Z,1011.34
2019-02-14T03:51:40.633Z,1011.35
2019-02-14T03:52:38.967Z,1011.36
2019-02-14T03:53:39.135Z,1011.45
2019-02-14T03:54:39.298Z,1011.42
2019-02-14T03:55:39.475Z,1011.42
2019-02-14T03:56:39.644Z,1011.39
2019-02-14T03:57:39.814Z,1011.41
2019-02-14T03:58:39.991Z,1011.42
2019-02-14T03:59:40.162Z,1011.45
2019-02-14T04:00:40.323Z,1011.43
2019-02-14T04:01:40.491Z,1011.44
2019-02-14T04:02:40.661Z,1011.42
2019-02-14T04:03:40.837Z,1011.44
2019-02-14T04:04:41.007Z,1011.44
2019-02-14T04:05:41.179Z,1011.44
2019-02-14T04:06:41.343Z,1011.43
2019-02-14T04:07:41.511Z,1011.43
2019-02-14T04:08:41.685Z,1011.44
2019-02-14T04:09:41.854Z,1011.43
2019-02-14T04:10:42.023Z,1011.44
2019-02-14T04:11:42.191Z,1011.44
2019-02-14T04:12:42.363Z,1011.46
2019-02-14T04:13:42.527Z,1011.45
2019-02-14T04:14:42.697Z,1011.45
2019-02-14T04:15:42.876Z,1011.44
2019-02-14T04:16:43.038Z,1011.48
2019-02-14T04:17:43.215Z,1011.47
2019-02-14T04:18:43.379Z,1011.42
2019-02-14T04:19:43.549Z,1011.45
2019-02-14T04:20:43.719Z,1011.43
2019-02-14T04:21:43.888Z,1011.41
2019-02-14T04:22:44.060Z,1011.39
2019-02-14T04:23:44.229Z,1011.34
2019-02-14T04:24:44.400Z,1011.38
2019-02-14T04:25:44.567Z,1011.36
2019-02-14T04:26:44.750Z,1011.30
2019-02-14T04:27:44.909Z,1011.32
2019-02-14T04:28:45.078Z,1011.27
2019-02-14T04:29:45.247Z,1011.20
2019-02-14T04:30:45.416Z,1011.26
2019-02-14T04:31:45.591Z,1011.20
2019-02-14T04:32:45.759Z,1011.21
2019-02-14T04:33:45.931Z,1011.29
2019-02-14T04:34:46.113Z,1011.34
2019-02-14T04:35:46.270Z,1011.33
2019-02-14T04:36:46.438Z,1011.36
2019-02-14T04:37:46.606Z,1011.29
2019-02-14T04:38:46.773Z,1011.28
2019-02-14T04:39:46.951Z,1011.28
2019-02-14T04:40:47.101Z,1011.31
2019-02-14T04:41:47.268Z,1011.35
2019-02-14T04:42:47.433Z,1011.36
2019-02-14T04:43:47.595Z,1011.38
2019-02-14T04:44:47.771Z,1011.36
2019-02-14T04:45:47.949Z,1011.34
2019-02-14T04:46:48.110Z,1011.36
2019-02-14T04:47:48.308Z,1011.34
2019-02-14T04:48:48.477Z,1011.28
2019-02-14T04:49:48.637Z,1011.33
2019-02-14T04:50:48.806Z,1011.29
2019-02-14T04:51:48.974Z,1011.32
2019-02-14T04:52:49.135Z,1011.31
2019-02-14T04:53:49.319Z,1011.36
2019-02-14T04:54:49.490Z,1011.31
2019-02-14T04:55:49.656Z,1011.28
2019-02-14T04:56:49.829Z,1011.23
2019-02-14T04:57:50.008Z,1011.23
2019-02-14T04:58:50.163Z,1011.25
2019-02-14T04:59:50.340Z,1011.21
2019-02-14T05:00:50.511Z,1011.14
2019-02-14T05:01:50.672Z,1011.17
2019-02-14T05:02:50.841Z,1011.13
2019-02-14T05:03:51.012Z,1011.19
2019-02-14T05:04:51.179Z,1011.20
2019-02-14T05:05:51.362Z,1011.19
2019-02-14T05:06:51.523Z,1011.22
2019-02-14T05:07:51.684Z,1011.23
2019-02-14T05:08:51.856Z,1011.29
2019-02-14T05:09:52.023Z,1011.31
2019-02-14T05:10:52.194Z,1011.34
2019-02-14T05:11:52.363Z,1011.34
2019-02-14T05:12:52.532Z,1011.29
2019-02-14T05:13:52.706Z,1011.29
2019-02-14T05:14:52.875Z,1011.38
2019-02-14T05:15:53.043Z,1011.33
2019-02-14T05:16:53.217Z,1011.27
2019-02-14T05:17:53.396Z,1011.26
2019-02-14T05:18:53.541Z,1011.28
2019-02-14T05:19:53.707Z,1011.23
2019-02-14T05:20:53.881Z,1011.21
2019-02-14T05:21:54.061Z,1011.24
2019-02-14T05:22:54.217Z,1011.22
2019-02-14T05:23:54.389Z,1011.20
2019-02-14T05:24:54.560Z,1011.20
2019-02-14T05:25:54.727Z,1011.22
2019-02-14T05:26:54.899Z,1011.23
2019-02-14T05:27:55.069Z,1011.23
2019-02-14T05:28:55.225Z,1011.19
2019-02-14T05:29:55.409Z,1011.22
2019-02-14T05:30:55.576Z,1011.24
2019-02-14T05:31:55.752Z,1011.23
2019-02-14T05:32:55.913Z,1011.19
2019-02-14T05:33:56.093Z,1011.24
2019-02-14T05:35:56.414Z,1011.23
2019-02-14T05:36:56.715Z,1011.24
2019-02-14T05:37:56.746Z,1011.27
2019-02-14T05:38:56.917Z,1011.27
2019-02-14T05:39:57.085Z,1011.33
2019-02-14T05:40:57.259Z,1011.37
2019-02-14T05:41:57.433Z,1011.35
2019-02-14T05:42:57.595Z,1011.31
2019-02-14T05:43:57.766Z,1011.30
2019-02-14T05:44:57.938Z,1011.30
2019-02-14T05:45:58.099Z,1011.31
2019-02-14T05:46:58.287Z,1011.29
2019-02-14T05:47:58.448Z,1011.32
2019-02-14T05:48:58.620Z,1011.34
2019-02-14T05:49:58.780Z,1011.36
2019-02-14T05:50:58.950Z,1011.35
2019-02-14T05:51:59.120Z,1011.31
2019-02-14T05:52:59.330Z,1011.32
2019-02-14T05:53:59.459Z,1011.30
2019-02-14T05:54:59.635Z,1011.33
2019-02-14T05:55:59.822Z,1011.34
2019-02-14T05:56:59.968Z,1011.35
2019-02-14T05:58:00.139Z,1011.36
2019-02-14T05:59:00.317Z,1011.35
2019-02-14T06:00:00.480Z,1011.28
2019-02-14T06:01:00.648Z,1011.27
2019-02-14T06:02:00.820Z,1011.35
2019-02-14T06:03:00.990Z,1011.32
2019-02-14T06:04:01.163Z,1011.39
2019-02-14T06:05:01.333Z,1011.42
2019-02-14T06:06:01.503Z,1011.37
2019-02-14T06:07:01.675Z,1011.40
2019-02-14T06:08:01.853Z,1011.44
2019-02-14T06:09:02.014Z,1011.42
2019-02-14T06:10:02.185Z,1011.42
2019-02-14T06:11:02.353Z,1011.40
2019-02-14T06:12:02.509Z,1011.45
2019-02-14T06:13:02.689Z,1011.44
2019-02-14T06:14:02.853Z,1011.44
2019-02-14T06:15:03.028Z,1011.48
2019-02-14T06:16:03.190Z,1011.46
2019-02-14T06:17:03.354Z,1011.49
2019-02-14T06:18:03.524Z,1011.49
2019-02-14T06:19:03.697Z,1011.54
2019-02-14T06:20:03.874Z,1011.56
2019-02-14T06:21:04.038Z,1011.55
2019-02-14T06:22:04.223Z,1011.55
2019-02-14T06:23:04.371Z,1011.54
2019-02-14T06:24:04.525Z,1011.56
2019-02-14T06:25:04.700Z,1011.59
2019-02-14T06:26:04.863Z,1011.59
2019-02-14T06:27:05.034Z,1011.57
2019-02-14T06:28:05.203Z,1011.60
2019-02-14T06:29:05.377Z,1011.63
2019-02-14T06:30:05.549Z,1011.64
2019-02-14T06:31:05.714Z,1011.72
2019-02-14T06:32:05.886Z,1011.80
2019-02-14T06:33:06.063Z,1011.77
2019-02-14T06:34:06.222Z,1011.86
2019-02-14T06:35:06.393Z,1011.90
2019-02-14T06:36:06.560Z,1011.86
2019-02-14T06:37:09.738Z,1011.82
2019-02-14T06:38:06.908Z,1011.85
2019-02-14T06:39:07.080Z,1011.90
2019-02-14T06:40:07.237Z,1011.88
2019-02-14T06:41:07.409Z,1011.90
2019-02-14T06:42:07.574Z,1011.88
2019-02-14T06:43:07.744Z,1011.85
2019-02-14T06:44:07.915Z,1011.89
2019-02-14T06:45:08.095Z,1011.90
2019-02-14T06:46:08.235Z,1011.91
2019-02-14T06:47:08.416Z,1011.93
2019-02-14T06:48:08.585Z,1011.99
2019-02-14T06:49:08.757Z,1012.02
2019-02-14T06:50:08.921Z,1012.00
2019-02-14T06:51:09.107Z,1012.01
2019-02-14T06:52:09.294Z,1012.04
2019-02-14T06:53:09.469Z,1012.05
2019-02-14T06:54:09.637Z,1012.11
2019-02-14T06:55:09.806Z,1012.10
2019-02-14T06:56:09.984Z,1012.15
2019-02-14T06:57:10.149Z,1012.21
2019-02-14T06:58:12.742Z,1012.21
2019-02-14T06:59:10.477Z,1012.19
2019-02-14T07:00:10.652Z,1012.24
2019-02-14T07:01:10.821Z,1012.20
2019-02-14T07:02:10.994Z,1012.23
2019-02-14T07:03:11.185Z,1012.27
2019-02-14T07:04:11.356Z,1012.28
2019-02-14T07:05:11.531Z,1012.29
2019-02-14T07:06:11.693Z,1012.26
2019-02-14T07:07:18.293Z,1012.24
2019-02-14T07:08:12.032Z,1012.26
2019-02-14T07:09:12.208Z,1012.25
2019-02-14T07:10:12.376Z,1012.28
2019-02-14T07:11:12.545Z,1012.31
2019-02-14T07:12:12.707Z,1012.32
2019-02-14T07:13:12.881Z,1012.34
2019-02-14T07:14:13.051Z,1012.35
2019-02-14T07:15:13.219Z,1012.36
2019-02-14T07:16:13.391Z,1012.40
2019-02-14T07:17:13.557Z,1012.44
2019-02-14T07:18:13.729Z,1012.44
2019-02-14T07:19:13.907Z,1012.43
2019-02-14T07:20:14.067Z,1012.48
2019-02-14T07:21:14.242Z,1012.47
2019-02-14T07:22:14.408Z,1012.53
2019-02-14T07:23:14.582Z,1012.58
2019-02-14T07:24:14.743Z,1012.55
2019-02-14T07:25:14.910Z,1012.59
2019-02-14T07:26:15.078Z,1012.56
2019-02-14T07:27:15.245Z,1012.53
2019-02-14T07:28:15.420Z,1012.48
2019-02-14T07:29:15.586Z,1012.46
2019-02-14T07:30:15.761Z,1012.44
2019-02-14T07:31:15.935Z,1012.43
2019-02-14T07:32:16.107Z,1012.39
2019-02-14T07:33:16.268Z,1012.41
2019-02-14T07:34:16.439Z,1012.36
2019-02-14T07:35:16.614Z,1012.38
2019-02-14T07:36:16.787Z,1012.40
2019-02-14T07:37:16.955Z,1012.42
2019-02-14T07:38:17.121Z,1012.43
2019-02-14T07:39:17.287Z,1012.42
2019-02-14T07:40:17.458Z,1012.46
2019-02-14T07:41:17.629Z,1012.51
2019-02-14T07:42:17.798Z,1012.52
2019-02-14T07:43:17.976Z,1012.54
2019-02-14T07:44:18.137Z,1012.60
2019-02-14T07:45:18.306Z,1012.65
2019-02-14T07:46:22.649Z,1012.63
2019-02-14T07:47:18.651Z,1012.70
2019-02-14T07:48:18.815Z,1012.72
2019-02-14T07:49:19.040Z,1012.74
2019-02-14T07:50:19.144Z,1012.76
2019-02-14T07:51:19.310Z,1012.83
2019-02-14T07:52:25.004Z,1012.79
2019-02-14T07:53:19.662Z,1012.74
2019-02-14T07:54:19.816Z,1012.74
2019-02-14T07:55:20.008Z,1012.67
2019-02-14T07:56:20.165Z,1012.67
2019-02-14T07:57:20.329Z,1012.59
2019-02-14T07:58:20.509Z,1012.59
2019-02-14T07:59:20.671Z,1012.56
2019-02-14T08:00:20.842Z,1012.58
2019-02-14T08:01:21.019Z,1012.60
2019-02-14T08:02:21.184Z,1012.66
2019-02-14T08:03:21.357Z,1012.70
2019-02-14T08:04:21.525Z,1012.73
2019-02-14T08:05:21.713Z,1012.74
2019-02-14T08:06:21.911Z,1012.73
2019-02-14T08:07:22.033Z,1012.70
2019-02-14T08:08:22.200Z,1012.70
2019-02-14T08:09:22.365Z,1012.71
2019-02-14T08:10:22.550Z,1012.68
2019-02-14T08:11:22.716Z,1012.73
2019-02-14T08:12:22.889Z,1012.73
2019-02-14T08:13:23.052Z,1012.78
2019-02-14T08:14:23.224Z,1012.72
2019-02-14T08:15:23.396Z,1012.66
2019-02-14T08:16:23.566Z,1012.67
2019-02-14T08:17:23.754Z,1012.68
2019-02-14T08:18:23.921Z,1012.64
2019-02-14T08:19:24.092Z,1012.60
2019-02-14T08:20:24.261Z,1012.51
2019-02-14T08:21:24.433Z,1012.54
2019-02-14T08:22:24.609Z,1012.57
2019-02-14T08:23:24.782Z,1012.50
2019-02-14T08:24:24.954Z,1012.56
2019-02-14T08:25:25.124Z,1012.52
2019-02-14T08:26:25.295Z,1012.54
2019-02-14T08:27:25.466Z,1012.50
2019-02-14T08:28:25.639Z,1012.51
2019-02-14T08:29:25.811Z,1012.60
2019-02-14T08:30:25.984Z,1012.59
2019-02-14T08:31:26.154Z,1012.62
2019-02-14T08:32:26.326Z,1012.62
2019-02-14T08:33:26.499Z,1012.62
2019-02-14T08:34:26.666Z,1012.65
2019-02-14T08:35:26.835Z,1012.64
2019-02-14T08:36:27.007Z,1012.66
2019-02-14T08:37:27.454Z,1012.63
2019-02-14T08:38:28.434Z,1012.67
2019-02-14T08:39:27.610Z,1012.66
2019-02-14T08:40:27.798Z,1012.65
2019-02-14T08:41:28.194Z,1012.63
2019-02-14T08:42:28.166Z,1012.57
2019-02-14T08:43:28.442Z,1012.57
2019-02-14T08:44:28.681Z,1012.52
2019-02-14T08:45:28.733Z,1012.56
2019-02-14T08:46:28.986Z,1012.55
2019-02-14T08:47:29.578Z,1012.48
2019-02-14T08:48:29.277Z,1012.47
2019-02-14T08:49:29.879Z,1012.49
2019-02-14T08:50:30.324Z,1012.48
2019-02-14T08:51:30.072Z,1012.48
2019-02-14T08:52:30.306Z,1012.51
2019-02-14T08:53:30.514Z,1012.53
2019-02-14T08:54:30.450Z,1012.52
2019-02-14T08:55:30.875Z,1012.52
2019-02-14T08:56:30.850Z,1012.54
2019-02-14T08:57:31.187Z,1012.52
2019-02-14T08:58:31.219Z,1012.50
2019-02-14T08:59:31.370Z,1012.48
2019-02-14T09:00:31.560Z,1012.47
2019-02-14T09:01:31.761Z,1012.50
2019-02-14T09:02:32.284Z,1012.48
2019-02-14T09:03:32.016Z,1012.49
2019-02-14T09:04:32.223Z,1012.56
2019-02-14T09:05:32.350Z,1012.61
2019-02-14T09:06:32.510Z,1012.61
2019-02-14T09:07:32.678Z,1012.57
2019-02-14T09:08:32.859Z,1012.55
2019-02-14T09:09:33.023Z,1012.52
2019-02-14T09:10:33.193Z,1012.52
2019-02-14T09:11:33.510Z,1012.52
2019-02-14T09:12:35.522Z,1012.53
2019-02-14T09:13:33.734Z,1012.51
2019-02-14T09:14:33.942Z,1012.47
2019-02-14T09:15:34.240Z,1012.47
2019-02-14T09:16:34.314Z,1012.43
2019-02-14T09:17:34.592Z,1012.39
2019-02-14T09:18:35.164Z,1012.44
2019-02-14T09:19:34.973Z,1012.43
2019-02-14T09:20:35.180Z,1012.43
2019-02-14T09:21:35.458Z,1012.49
2019-02-14T09:22:35.531Z,1012.51
2019-02-14T09:23:35.669Z,1012.55
2019-02-14T09:24:35.918Z,1012.58
2019-02-14T09:25:36.135Z,1012.63
2019-02-14T09:26:36.160Z,1012.62
2019-02-14T09:27:36.623Z,1012.59
2019-02-14T09:28:36.653Z,1012.61
2019-02-14T09:29:36.971Z,1012.56
2019-02-14T09:30:37.269Z,1012.58
2019-02-14T09:31:37.627Z,1012.55
2019-02-14T09:32:37.533Z,1012.56
2019-02-14T09:33:37.736Z,1012.53
2019-02-14T09:34:37.876Z,1012.58
2019-02-14T09:35:38.210Z,1012.56
2019-02-14T09:36:38.028Z,1012.61
2019-02-14T09:37:38.181Z,1012.57
2019-02-14T09:38:38.616Z,1012.65
2019-02-14T09:39:40.915Z,1012.63
2019-02-14T09:40:38.975Z,1012.63
2019-02-14T09:41:39.299Z,1012.61
2019-02-14T09:42:39.191Z,1012.60
2019-02-14T09:43:39.514Z,1012.58
2019-02-14T09:44:39.741Z,1012.57
2019-02-14T09:45:39.634Z,1012.60
2019-02-14T09:46:40.346Z,1012.61
2019-02-14T09:47:40.142Z,1012.62
2019-02-14T09:48:40.146Z,1012.62
2019-02-14T09:49:40.427Z,1012.65
2019-02-14T09:50:40.488Z,1012.64
2019-02-14T09:51:40.616Z,1012.61
2019-02-14T09:52:41.285Z,1012.61
2019-02-14T09:53:41.656Z,1012.59
2019-02-14T09:54:41.299Z,1012.59
2019-02-14T09:55:41.408Z,1012.58
2019-02-14T09:56:41.789Z,1012.57
2019-02-14T09:57:41.793Z,1012.59
2019-02-14T09:58:42.143Z,1012.55
2019-02-14T09:59:41.840Z,1012.57
2019-02-14T10:00:42.004Z,1012.52
2019-02-14T10:01:42.192Z,1012.51
2019-02-14T10:02:42.568Z,1012.56
2019-02-14T10:03:42.876Z,1012.59
2019-02-14T10:04:43.079Z,1012.55
2019-02-14T10:05:43.803Z,1012.59
2019-02-14T10:06:43.365Z,1012.64
2019-02-14T10:07:43.514Z,1012.64
2019-02-14T10:08:43.658Z,1012.65
2019-02-14T10:09:43.951Z,1012.66
2019-02-14T10:10:44.053Z,1012.65
2019-02-14T10:11:44.054Z,1012.66
2019-02-14T10:12:44.270Z,1012.65
2019-02-14T10:13:44.540Z,1012.64
2019-02-14T10:14:45.049Z,1012.60
2019-02-14T10:15:44.562Z,1012.63
2019-02-14T10:16:44.794Z,1012.60
2019-02-14T10:17:44.904Z,1012.62
2019-02-14T10:18:45.068Z,1012.59
2019-02-14T10:19:45.245Z,1012.61
2019-02-14T10:20:45.409Z,1012.62
2019-02-14T10:21:45.581Z,1012.59
2019-02-14T10:22:45.755Z,1012.50
2019-02-14T10:23:46.042Z,1012.53
2019-02-14T10:24:46.204Z,1012.47
2019-02-14T10:25:46.302Z,1012.48
2019-02-14T10:26:46.672Z,1012.45
2019-02-14T10:27:47.061Z,1012.48
2019-02-14T10:28:46.957Z,1012.46
2019-02-14T10:29:47.051Z,1012.45
2019-02-14T10:30:47.000Z,1012.44
2019-02-14T10:31:47.387Z,1012.50
2019-02-14T10:32:47.399Z,1012.49
2019-02-14T10:33:47.534Z,1012.46
2019-02-14T10:34:47.764Z,1012.47
2019-02-14T10:35:47.911Z,1012.45
2019-02-14T10:36:48.031Z,1012.44
2019-02-14T10:37:48.297Z,1012.42
2019-02-14T10:38:48.381Z,1012.34
2019-02-14T10:39:48.651Z,1012.32
2019-02-14T10:40:48.932Z,1012.34
2019-02-14T10:41:48.955Z,1012.40
2019-02-14T10:42:49.179Z,1012.38
2019-02-14T10:43:49.415Z,1012.38
2019-02-14T10:44:49.622Z,1012.39
2019-02-14T10:45:49.780Z,1012.39
2019-02-14T10:46:50.109Z,1012.38
2019-02-14T10:47:50.143Z,1012.46
2019-02-14T10:48:50.221Z,1012.44
2019-02-14T10:49:50.394Z,1012.37
2019-02-14T10:50:51.197Z,1012.47
2019-02-14T10:51:50.789Z,1012.45
2019-02-14T10:52:50.869Z,1012.45
2019-02-14T10:53:51.094Z,1012.44
2019-02-14T10:54:51.228Z,1012.42
2019-02-14T10:55:51.479Z,1012.42
2019-02-14T10:56:51.780Z,1012.44
2019-02-14T10:57:51.903Z,1012.50
2019-02-14T10:58:52.000Z,1012.45
2019-02-14T10:59:53.189Z,1012.48
2019-02-14T11:00:52.644Z,1012.51
2019-02-14T11:01:53.832Z,1012.55
2019-02-14T11:02:53.106Z,1012.56
2019-02-14T11:03:53.094Z,1012.58
2019-02-14T11:04:53.144Z,1012.57
2019-02-14T11:05:53.464Z,1012.55
2019-02-14T11:06:54.352Z,1012.54
2019-02-14T11:07:53.797Z,1012.51
2019-02-14T11:08:53.926Z,1012.50
2019-02-14T11:09:54.324Z,1012.53
2019-02-14T11:10:54.257Z,1012.45
2019-02-14T11:11:54.374Z,1012.46
2019-02-14T11:12:54.610Z,1012.47
2019-02-14T11:13:54.674Z,1012.51
2019-02-14T11:14:54.909Z,1012.51
2019-02-14T11:15:55.197Z,1012.51
2019-02-14T11:16:55.303Z,1012.47
2019-02-14T11:17:55.698Z,1012.46
2019-02-14T11:18:55.722Z,1012.45
2019-02-14T11:19:55.805Z,1012.46
2019-02-14T11:20:56.162Z,1012.44
2019-02-14T11:21:56.146Z,1012.46
2019-02-14T11:22:56.429Z,1012.43
2019-02-14T11:23:56.764Z,1012.42
2019-02-14T11:24:56.786Z,1012.42
2019-02-14T11:25:56.823Z,1012.42
2019-02-14T11:26:57.316Z,1012.44
2019-02-14T11:27:57.374Z,1012.45
2019-02-14T11:28:57.902Z,1012.42
2019-02-14T11:29:57.671Z,1012.43
2019-02-14T11:30:59.847Z,1012.39
2019-02-14T11:31:59.396Z,1012.39
2019-02-14T11:32:59.431Z,1012.42
2019-02-14T11:33:58.590Z,1012.38
2019-02-14T11:34:59.021Z,1012.35
2019-02-14T11:35:59.458Z,1012.34
2019-02-14T11:36:59.858Z,1012.32
2019-02-14T11:37:59.289Z,1012.33
2019-02-14T11:38:59.352Z,1012.35
2019-02-14T11:39:59.513Z,1012.35
2019-02-14T11:41:00.081Z,1012.29
2019-02-14T11:42:00.102Z,1012.25
2019-02-14T11:43:00.344Z,1012.24
2019-02-14T11:44:02.753Z,1012.22
2019-02-14T11:45:00.446Z,1012.18
2019-02-14T11:46:00.733Z,1012.16
2019-02-14T11:47:01.063Z,1012.19
2019-02-14T11:48:01.427Z,1012.20
2019-02-14T11:49:01.129Z,1012.23
2019-02-14T11:50:01.388Z,1012.22
2019-02-14T11:51:01.535Z,1012.30
2019-02-14T11:52:02.100Z,1012.30
2019-02-14T11:53:01.930Z,1012.29
2019-02-14T11:54:02.073Z,1012.27
2019-02-14T11:55:02.248Z,1012.26
2019-02-14T11:56:02.578Z,1012.22
2019-02-14T11:57:02.656Z,1012.21
2019-02-14T11:58:02.775Z,1012.13
2019-02-14T11:59:03.012Z,1012.10
2019-02-14T12:00:03.726Z,1012.07
2019-02-14T12:01:03.454Z,1012.03
2019-02-14T12:02:04.387Z,1011.97
2019-02-14T12:03:03.951Z,1012.00
2019-02-14T12:04:04.063Z,1011.95
2019-02-14T12:05:04.613Z,1011.94
2019-02-14T12:06:04.566Z,1011.93
2019-02-14T12:07:04.701Z,1011.90
2019-02-14T12:08:05.018Z,1011.87
2019-02-14T12:09:05.122Z,1011.85
2019-02-14T12:10:13.197Z,1011.84